Time;durP1;ratioP1;P1;durP2;ratioP2;P2;SDS_P1;SDS_P2;PMS_P1;PMS_P2;Temp;Humidity;BMP_temperature;BMP_pressure;BME280_temperature;BME280_humidity;BME280_pressure;Samples;Min_cycle;Max_cycle;Signal;HPM_P1;HPM_P2
2022/04/24 00:02:22;;;;;;;10.52;5.70;;;10.20;99.90;;;;;;5053611;28;20040;-75
2022/04/24 00:04:48;;;;;;;7.22;5.70;;;10.20;99.90;;;;;;5035377;28;20036;-76
2022/04/24 00:07:14;;;;;;;7.97;5.35;;;10.20;99.90;;;;;;5053058;28;20051;-77
2022/04/24 00:09:39;;;;;;;9.65;5.90;;;10.20;99.90;;;;;;5052998;28;20094;-76
2022/04/24 00:12:06;;;;;;;10.35;5.43;;;10.20;99.90;;;;;;5053440;28;20013;-76
2022/04/24 00:14:32;;;;;;;7.43;5.25;;;10.10;99.90;;;;;;5053033;28;20449;-76
2022/04/24 00:16:58;;;;;;;11.25;5.28;;;10.10;99.90;;;;;;5058384;28;20095;-76
2022/04/24 00:19:24;;;;;;;8.25;5.63;;;10.00;99.90;;;;;;5071701;28;20024;-76
2022/04/24 00:21:50;;;;;;;11.63;5.72;;;10.00;99.90;;;;;;5031055;28;20064;-76
2022/04/24 00:24:16;;;;;;;7.50;5.47;;;9.90;99.90;;;;;;5032476;28;20053;-77
2022/04/24 00:26:41;;;;;;;10.43;5.95;;;9.90;99.90;;;;;;5031933;28;20486;-77
2022/04/24 00:29:07;;;;;;;9.30;5.47;;;9.80;99.90;;;;;;5033603;28;20387;-76
2022/04/24 00:31:32;;;;;;;9.20;6.10;;;9.80;99.90;;;;;;5033345;28;20033;-77
2022/04/24 00:33:58;;;;;;;10.30;5.35;;;9.70;99.90;;;;;;5033516;28;20033;-76
2022/04/24 00:36:23;;;;;;;9.05;5.80;;;9.70;99.90;;;;;;5033694;28;20037;-76
2022/04/24 00:38:50;;;;;;;7.97;4.80;;;9.70;99.90;;;;;;5034012;28;20040;-76
2022/04/24 00:41:15;;;;;;;9.05;5.00;;;9.60;99.90;;;;;;5044100;28;20547;-76
2022/04/24 00:43:41;;;;;;;8.32;5.63;;;9.60;99.90;;;;;;5056664;28;20028;-76
2022/04/24 00:46:13;;;;;;;10.90;6.25;;;9.60;99.90;;;;;;5057961;28;20351;-76
2022/04/24 00:48:43;;;;;;;7.45;5.57;;;9.50;99.90;;;;;;5058647;28;20029;-76
2022/04/24 00:51:09;;;;;;;8.20;5.28;;;9.40;99.90;;;;;;5042176;28;20025;-76
2022/04/24 00:53:36;;;;;;;6.75;5.57;;;9.40;99.90;;;;;;5057286;28;20390;-77
2022/04/24 00:56:02;;;;;;;8.15;5.55;;;9.40;99.90;;;;;;5039426;28;20028;-76
2022/04/24 00:58:28;;;;;;;7.03;5.70;;;9.40;99.90;;;;;;5039315;28;20025;-76
2022/04/24 01:00:55;;;;;;;7.25;5.57;;;9.30;99.90;;;;;;5057504;28;20040;-76
2022/04/24 01:03:21;;;;;;;7.90;5.55;;;9.30;99.90;;;;;;5058153;28;20035;-76
2022/04/24 01:05:47;;;;;;;7.93;5.25;;;9.30;99.90;;;;;;5038927;28;20028;-76
2022/04/24 01:08:12;;;;;;;8.40;5.30;;;9.30;99.90;;;;;;5058354;28;20021;-77
2022/04/24 01:10:39;;;;;;;6.93;4.93;;;9.20;99.90;;;;;;5060126;28;20029;-76
2022/04/24 01:13:05;;;;;;;9.48;5.45;;;9.20;99.90;;;;;;5060126;28;20021;-76
2022/04/24 01:15:32;;;;;;;10.70;5.65;;;9.20;99.90;;;;;;5074734;28;20043;-75
2022/04/24 01:17:59;;;;;;;6.63;5.40;;;9.10;99.90;;;;;;5077172;28;20028;-77
2022/04/24 01:20:25;;;;;;;9.45;5.20;;;9.10;99.90;;;;;;5073140;28;20097;-77
2022/04/24 01:22:50;;;;;;;9.02;5.13;;;9.10;99.90;;;;;;5075795;28;20029;-77
2022/04/24 01:25:16;;;;;;;6.72;5.07;;;9.10;99.90;;;;;;5060353;28;20021;-78
2022/04/24 01:27:42;;;;;;;8.35;5.30;;;9.10;99.90;;;;;;5075311;28;20036;-77
2022/04/24 01:30:08;;;;;;;8.18;5.78;;;9.00;99.90;;;;;;5078201;28;20047;-77
2022/04/24 01:32:34;;;;;;;6.85;5.07;;;9.00;99.90;;;;;;5064749;28;20039;-77
2022/04/24 01:35:00;;;;;;;8.27;5.13;;;8.90;99.90;;;;;;5056977;28;20100;-77
2022/04/24 01:37:25;;;;;;;8.25;4.95;;;8.90;99.90;;;;;;5038551;28;20021;-74
2022/04/24 01:39:55;;;;;;;8.38;4.75;;;8.90;99.90;;;;;;5037490;28;20354;-74
2022/04/24 01:42:21;;;;;;;7.78;5.30;;;8.80;99.90;;;;;;5038067;28;20031;-74
2022/04/24 01:44:47;;;;;;;13.68;6.05;;;8.80;99.90;;;;;;5037898;28;20025;-74
2022/04/24 01:47:13;;;;;;;6.03;5.00;;;8.80;99.90;;;;;;5055780;28;20029;-74
2022/04/24 01:49:38;;;;;;;9.35;4.80;;;8.80;99.90;;;;;;5055649;28;20099;-74
2022/04/24 01:52:07;;;;;;;11.65;5.28;;;8.80;99.90;;;;;;5037956;28;20112;-75
2022/04/24 01:54:33;;;;;;;9.68;5.50;;;8.70;99.90;;;;;;5055597;28;20048;-75
2022/04/24 01:56:59;;;;;;;9.57;5.10;;;8.70;99.90;;;;;;5056037;28;20457;-74
2022/04/24 01:59:25;;;;;;;6.55;4.90;;;8.70;99.90;;;;;;5056155;28;20041;-75
2022/04/24 02:01:50;;;;;;;8.65;5.22;;;8.70;99.90;;;;;;5055920;28;20082;-74
2022/04/24 02:04:18;;;;;;;9.32;5.00;;;8.70;99.90;;;;;;5056383;28;20122;-74
2022/04/24 02:06:45;;;;;;;8.10;4.80;;;8.80;99.90;;;;;;5037878;28;20021;-74
2022/04/24 02:09:10;;;;;;;10.73;5.20;;;8.70;99.90;;;;;;5056698;28;20032;-74
2022/04/24 02:11:36;;;;;;;11.18;5.35;;;8.70;99.90;;;;;;5037984;28;20386;-74
2022/04/24 02:14:01;;;;;;;7.95;4.65;;;8.80;99.90;;;;;;5056116;28;20025;-74
2022/04/24 02:16:27;;;;;;;10.18;4.90;;;8.70;99.90;;;;;;5054718;28;20025;-74
2022/04/24 02:18:52;;;;;;;8.65;5.15;;;8.70;99.90;;;;;;5055071;28;20054;-74
2022/04/24 02:21:18;;;;;;;6.80;5.10;;;8.80;99.90;;;;;;5054694;28;20029;-74
2022/04/24 02:23:44;;;;;;;6.82;4.40;;;8.70;99.90;;;;;;5054548;28;20017;-74
2022/04/24 02:26:09;;;;;;;6.63;4.93;;;8.80;99.90;;;;;;5055064;28;20027;-74
2022/04/24 02:28:35;;;;;;;6.68;5.40;;;8.70;99.90;;;;;;5054595;28;20053;-74
2022/04/24 02:31:01;;;;;;;6.57;5.03;;;8.70;99.90;;;;;;5054668;28;20029;-75
2022/04/24 02:33:27;;;;;;;9.20;4.97;;;8.70;99.90;;;;;;5037009;28;20103;-74
2022/04/24 02:35:52;;;;;;;8.13;5.70;;;8.70;99.90;;;;;;5055577;28;20108;-74
2022/04/24 02:38:18;;;;;;;11.77;5.75;;;8.70;99.90;;;;;;5037191;28;20123;-75
2022/04/24 02:40:43;;;;;;;9.23;5.30;;;8.70;99.90;;;;;;5040146;28;20039;-74
2022/04/24 02:43:09;;;;;;;7.53;4.90;;;8.70;99.90;;;;;;5060436;28;20048;-74
2022/04/24 02:45:35;;;;;;;7.28;5.15;;;8.70;99.90;;;;;;5054427;28;20025;-74
2022/04/24 02:48:02;;;;;;;10.48;5.15;;;8.60;99.90;;;;;;5036283;28;20025;-75
2022/04/24 02:50:28;;;;;;;10.10;5.25;;;8.60;99.90;;;;;;5054357;28;20021;-74
2022/04/24 02:52:55;;;;;;;10.73;5.50;;;8.60;99.90;;;;;;5053795;28;20021;-74
2022/04/24 02:55:22;;;;;;;11.77;6.13;;;8.60;99.90;;;;;;5053770;28;20472;-75
2022/04/24 02:57:48;;;;;;;8.02;4.95;;;8.60;99.90;;;;;;5036003;28;20032;-74
2022/04/24 03:00:22;;;;;;;15.00;5.90;;;8.60;99.90;;;;;;5035649;28;20029;-74
2022/04/24 03:02:49;;;;;;;8.10;5.35;;;8.50;99.90;;;;;;5054274;28;20506;-75
2022/04/24 03:05:17;;;;;;;8.20;5.43;;;8.50;99.90;;;;;;5053165;28;20082;-74
2022/04/24 03:07:43;;;;;;;7.63;5.38;;;8.50;99.90;;;;;;5053976;28;20355;-74
2022/04/24 03:10:09;;;;;;;9.63;4.95;;;8.50;99.90;;;;;;5053654;28;20083;-74
2022/04/24 03:12:36;;;;;;;9.68;4.68;;;8.50;99.90;;;;;;5054668;28;20013;-76
2022/04/24 03:15:03;;;;;;;8.50;5.15;;;8.50;99.90;;;;;;5054456;28;20103;-76
2022/04/24 03:17:31;;;;;;;10.18;5.70;;;8.60;99.90;;;;;;5054298;28;20094;-76
2022/04/24 03:19:56;;;;;;;8.75;5.07;;;8.50;99.90;;;;;;5054261;28;20134;-77
2022/04/24 03:22:22;;;;;;;10.70;5.28;;;8.60;99.90;;;;;;5055004;28;20032;-76
2022/04/24 03:24:47;;;;;;;8.57;4.80;;;8.50;99.90;;;;;;5037214;28;20059;-77
2022/04/24 03:27:13;;;;;;;8.75;4.95;;;8.60;99.90;;;;;;5046753;28;20060;-76
2022/04/24 03:29:39;;;;;;;7.85;5.32;;;8.50;99.90;;;;;;5051573;28;20025;-76
2022/04/24 03:32:05;;;;;;;5.88;4.93;;;8.60;99.90;;;;;;5059715;28;20036;-76
2022/04/24 03:34:31;;;;;;;7.05;5.22;;;8.60;99.90;;;;;;5036960;28;20508;-76
2022/04/24 03:36:57;;;;;;;6.57;4.95;;;8.50;99.90;;;;;;5055533;28;20025;-76
2022/04/24 03:39:22;;;;;;;5.75;4.53;;;8.50;99.90;;;;;;5049366;28;20039;-76
2022/04/24 03:41:48;;;;;;;8.48;4.63;;;8.50;99.90;;;;;;5066535;28;20033;-77
2022/04/24 03:44:13;;;;;;;6.60;4.78;;;8.40;99.90;;;;;;5065893;28;20029;-77
2022/04/24 03:46:39;;;;;;;6.57;4.80;;;8.40;99.90;;;;;;5064689;28;20104;-77
2022/04/24 03:49:04;;;;;;;6.35;4.15;;;8.40;99.90;;;;;;5057499;28;20474;-77
2022/04/24 03:51:30;;;;;;;7.38;5.00;;;8.40;99.90;;;;;;5054182;28;20025;-77
2022/04/24 03:53:55;;;;;;;6.38;4.40;;;8.50;99.90;;;;;;5046429;28;20048;-77
2022/04/24 03:56:21;;;;;;;8.18;5.05;;;8.50;99.90;;;;;;5059860;28;20053;-77
2022/04/24 03:58:46;;;;;;;6.80;4.30;;;8.50;99.90;;;;;;5054543;28;20022;-76
2022/04/24 04:01:12;;;;;;;9.35;4.35;;;8.50;99.90;;;;;;5053948;28;20075;-77
2022/04/24 04:03:38;;;;;;;6.93;4.32;;;8.50;99.90;;;;;;5053921;28;20017;-77
2022/04/24 04:06:03;;;;;;;7.63;4.65;;;8.40;99.90;;;;;;5053905;28;20498;-77
2022/04/24 04:08:29;;;;;;;8.43;4.32;;;8.40;99.90;;;;;;5053573;28;20033;-76
2022/04/24 04:10:54;;;;;;;6.63;4.10;;;8.50;99.90;;;;;;5054147;28;20033;-77
2022/04/24 04:13:20;;;;;;;7.30;4.20;;;8.40;99.90;;;;;;5057583;28;20021;-77
2022/04/24 04:15:45;;;;;;;6.30;4.53;;;8.40;99.90;;;;;;5038692;28;20087;-77
2022/04/24 04:18:11;;;;;;;7.75;3.95;;;8.40;99.90;;;;;;5059627;28;20071;-77
2022/04/24 04:20:36;;;;;;;5.75;4.07;;;8.40;99.90;;;;;;5058549;28;20025;-78
2022/04/24 04:23:03;;;;;;;8.05;4.30;;;8.50;99.90;;;;;;5048037;28;20024;-77
2022/04/24 04:25:28;;;;;;;7.32;4.57;;;8.40;99.90;;;;;;5050453;28;20029;-77
2022/04/24 04:27:54;;;;;;;8.40;3.80;;;8.50;99.90;;;;;;5058248;28;20025;-77
2022/04/24 04:30:21;;;;;;;8.73;3.70;;;8.40;99.90;;;;;;5058862;28;20021;-77
2022/04/24 04:32:47;;;;;;;4.45;3.55;;;8.40;99.90;;;;;;5041800;28;20079;-77
2022/04/24 04:35:12;;;;;;;7.25;3.72;;;8.50;99.90;;;;;;5059270;28;20425;-77
2022/04/24 04:37:42;;;;;;;7.32;4.03;;;8.50;99.90;;;;;;5040033;28;20112;-77
2022/04/24 04:40:10;;;;;;;6.80;3.63;;;8.50;99.90;;;;;;5058565;28;20053;-77
2022/04/24 04:42:36;;;;;;;5.32;3.63;;;8.50;99.90;;;;;;5058935;28;20417;-77
2022/04/24 04:45:03;;;;;;;6.13;3.92;;;8.50;99.90;;;;;;5058607;28;20033;-77
2022/04/24 04:47:29;;;;;;;6.00;3.60;;;8.60;99.90;;;;;;5040014;28;20048;-76
2022/04/24 04:49:55;;;;;;;6.25;3.00;;;8.60;99.90;;;;;;5057530;28;20017;-76
2022/04/24 04:52:21;;;;;;;3.92;3.00;;;8.60;99.90;;;;;;5057754;28;20027;-76
2022/04/24 04:54:47;;;;;;;5.30;3.35;;;8.70;99.90;;;;;;5057023;28;20381;-76
2022/04/24 04:57:12;;;;;;;5.40;3.17;;;8.70;99.90;;;;;;5056847;28;20104;-77
2022/04/24 04:59:38;;;;;;;6.72;3.03;;;8.80;99.90;;;;;;5038692;28;20070;-76
2022/04/24 05:02:04;;;;;;;4.55;3.28;;;8.80;99.90;;;;;;5057698;28;20099;-77
2022/04/24 05:04:30;;;;;;;7.00;3.35;;;8.80;99.90;;;;;;5045428;28;20431;-77
2022/04/24 05:06:55;;;;;;;6.07;2.88;;;8.80;99.90;;;;;;5072020;28;20025;-76
2022/04/24 05:09:21;;;;;;;7.43;2.80;;;8.80;99.90;;;;;;5057220;28;20124;-77
2022/04/24 05:11:47;;;;;;;5.82;2.97;;;8.90;99.90;;;;;;5038678;28;20478;-78
2022/04/24 05:14:13;;;;;;;6.00;3.20;;;9.00;99.90;;;;;;5056567;28;20490;-77
2022/04/24 05:16:38;;;;;;;10.30;3.33;;;9.00;99.90;;;;;;5057018;28;20025;-77
2022/04/24 05:19:06;;;;;;;10.50;4.15;;;9.00;99.90;;;;;;5038412;28;20067;-77
2022/04/24 05:21:32;;;;;;;6.28;4.00;;;9.10;99.90;;;;;;5056368;28;20428;-76
2022/04/24 05:23:57;;;;;;;4.63;2.90;;;9.10;99.90;;;;;;5038741;28;20032;-76
2022/04/24 05:26:23;;;;;;;4.10;2.88;;;9.10;99.90;;;;;;5038704;28;20028;-77
2022/04/24 05:28:49;;;;;;;9.13;3.55;;;9.20;99.90;;;;;;5055607;28;20047;-77
2022/04/24 05:31:14;;;;;;;6.38;3.22;;;9.20;99.90;;;;;;5056601;28;20017;-77
2022/04/24 05:33:40;;;;;;;6.25;3.17;;;9.20;99.90;;;;;;5056443;28;20386;-77
2022/04/24 05:36:06;;;;;;;5.95;3.45;;;9.20;99.90;;;;;;5038622;28;20033;-78
2022/04/24 05:38:32;;;;;;;5.30;3.03;;;9.20;99.90;;;;;;5056302;28;20075;-77
2022/04/24 05:40:58;;;;;;;5.03;2.83;;;9.30;99.90;;;;;;5057272;28;20119;-77
2022/04/24 05:43:23;;;;;;;8.50;3.47;;;9.30;99.90;;;;;;5056941;28;20079;-77
2022/04/24 05:45:49;;;;;;;6.05;3.38;;;9.30;99.90;;;;;;5038579;28;20514;-78
2022/04/24 05:48:15;;;;;;;3.70;2.90;;;9.40;99.90;;;;;;5040001;28;20364;-77
2022/04/24 05:50:41;;;;;;;4.30;3.03;;;9.50;99.90;;;;;;5058177;28;20060;-78
2022/04/24 05:53:07;;;;;;;5.05;2.80;;;9.40;99.90;;;;;;5056780;28;20020;-77
2022/04/24 05:55:32;;;;;;;7.40;3.30;;;9.50;99.90;;;;;;5063313;28;20017;-77
2022/04/24 05:57:58;;;;;;;8.38;3.53;;;9.60;99.90;;;;;;5069148;28;20032;-77
2022/04/24 06:00:24;;;;;;;5.97;3.70;;;9.60;99.90;;;;;;5049897;28;20079;-78
2022/04/24 06:02:50;;;;;;;6.47;3.65;;;9.70;99.90;;;;;;5067074;28;20359;-77
2022/04/24 06:05:15;;;;;;;8.95;3.95;;;9.70;99.90;;;;;;5061736;28;20036;-77
2022/04/24 06:07:41;;;;;;;7.80;3.45;;;9.60;99.90;;;;;;5056271;28;20033;-77
2022/04/24 06:10:08;;;;;;;7.93;4.03;;;9.70;99.90;;;;;;5038470;28;20021;-78
2022/04/24 06:12:48;;;;;;;7.40;3.97;;;9.60;99.90;;;;;;5041065;28;20405;-77
2022/04/24 06:15:17;;;;;;;9.35;4.35;;;9.70;99.90;;;;;;5041002;28;20060;-78
2022/04/24 06:17:47;;;;;;;8.85;3.95;;;9.60;99.90;;;;;;5055454;28;20029;-77
2022/04/24 06:20:14;;;;;;;8.55;4.88;;;9.60;99.90;;;;;;5062598;28;20021;-78
2022/04/24 06:22:48;;;;;;;8.45;4.63;;;9.50;99.90;;;;;;5058170;28;20097;-77
2022/04/24 06:25:25;;;;;;;8.00;4.43;;;9.50;99.90;;;;;;5058347;28;20534;-77
2022/04/24 06:27:51;;;;;;;5.82;4.38;;;9.50;99.90;;;;;;5058795;28;20498;-77
2022/04/24 06:30:19;;;;;;;7.45;4.38;;;9.60;99.90;;;;;;5058481;28;20017;-79
2022/04/24 06:32:45;;;;;;;9.80;4.45;;;9.50;99.90;;;;;;5059171;28;20017;-78
2022/04/24 06:35:14;;;;;;;11.18;4.68;;;9.40;99.90;;;;;;5057726;28;20109;-77
2022/04/24 06:37:53;;;;;;;7.93;4.30;;;9.50;99.90;;;;;;5041194;28;20020;-77
2022/04/24 06:40:19;;;;;;;9.18;4.50;;;9.50;99.90;;;;;;5059839;28;20033;-78
2022/04/24 06:42:49;;;;;;;8.20;4.40;;;9.60;99.90;;;;;;5042914;28;20052;-78
2022/04/24 06:45:15;;;;;;;6.63;3.92;;;9.60;99.90;;;;;;5060549;28;20111;-77
2022/04/24 06:47:42;;;;;;;7.22;3.67;;;9.70;99.90;;;;;;5059553;28;20041;-76
2022/04/24 06:50:11;;;;;;;6.22;4.07;;;9.70;99.90;;;;;;5063508;28;20057;-77
2022/04/24 06:52:36;;;;;;;7.57;4.30;;;9.80;99.90;;;;;;5057160;28;20106;-78
2022/04/24 06:55:02;;;;;;;10.90;4.10;;;9.80;99.90;;;;;;5058681;28;20021;-78
2022/04/24 06:57:27;;;;;;;8.50;5.03;;;9.90;99.90;;;;;;5038336;28;20526;-77
2022/04/24 06:59:53;;;;;;;4.82;3.47;;;10.00;99.90;;;;;;5056602;28;20029;-77
2022/04/24 07:02:18;;;;;;;7.45;3.85;;;10.10;99.90;;;;;;5055790;28;20063;-77
2022/04/24 07:04:44;;;;;;;12.23;4.47;;;10.30;99.90;;;;;;5055545;28;20082;-76
2022/04/24 07:07:10;;;;;;;8.57;4.22;;;10.30;99.90;;;;;;5055436;28;20088;-76
2022/04/24 07:09:36;;;;;;;8.52;4.60;;;10.40;99.90;;;;;;5055599;28;20504;-77
2022/04/24 07:12:02;;;;;;;10.68;4.35;;;10.50;99.90;;;;;;5054951;28;20025;-76
2022/04/24 07:14:27;;;;;;;6.60;3.88;;;10.60;99.90;;;;;;5055133;28;20025;-77
2022/04/24 07:16:53;;;;;;;8.52;3.83;;;10.80;99.90;;;;;;5055177;28;20057;-77
2022/04/24 07:19:19;;;;;;;7.43;3.85;;;10.90;99.90;;;;;;5037225;28;20028;-76
2022/04/24 07:21:44;;;;;;;10.82;4.68;;;11.00;99.90;;;;;;5055518;28;20486;-76
2022/04/24 07:24:10;;;;;;;6.60;4.13;;;11.00;99.90;;;;;;5058440;28;20035;-76
2022/04/24 07:26:35;;;;;;;5.80;4.15;;;11.00;99.90;;;;;;5074176;28;20028;-76
2022/04/24 07:29:01;;;;;;;6.88;4.45;;;11.10;99.90;;;;;;5075919;28;20040;-76
2022/04/24 07:31:26;;;;;;;8.55;4.07;;;11.20;99.90;;;;;;5066910;28;20036;-77
2022/04/24 07:33:54;;;;;;;8.48;3.85;;;11.30;99.90;;;;;;5039250;28;20347;-77
2022/04/24 07:36:20;;;;;;;5.80;3.70;;;11.20;99.90;;;;;;5054292;28;20021;-77
2022/04/24 07:38:45;;;;;;;9.07;4.15;;;11.30;99.90;;;;;;5055967;28;20032;-77
2022/04/24 07:41:11;;;;;;;5.07;3.70;;;11.30;99.90;;;;;;5054393;28;20041;-77
2022/04/24 07:43:36;;;;;;;6.45;4.00;;;11.30;99.90;;;;;;5054144;28;20033;-77
2022/04/24 07:46:02;;;;;;;12.60;3.75;;;11.40;99.90;;;;;;5054771;28;20044;-78
2022/04/24 07:48:28;;;;;;;11.43;4.00;;;11.30;99.90;;;;;;5036610;28;20433;-77
2022/04/24 07:50:53;;;;;;;9.68;4.05;;;11.40;99.90;;;;;;5054324;28;20604;-77
2022/04/24 07:53:20;;;;;;;8.57;3.88;;;11.50;99.90;;;;;;5036586;28;20056;-77
2022/04/24 07:55:48;;;;;;;6.40;3.90;;;11.50;99.90;;;;;;5054170;28;20032;-76
2022/04/24 07:58:14;;;;;;;6.65;3.70;;;11.60;99.90;;;;;;5036435;28;20060;-76
2022/04/24 08:00:41;;;;;;;11.30;3.83;;;11.60;99.90;;;;;;5054738;28;20032;-76
2022/04/24 08:03:08;;;;;;;9.57;3.90;;;11.80;99.90;;;;;;5055628;28;20032;-76
2022/04/24 08:05:37;;;;;;;10.07;3.97;;;11.80;99.90;;;;;;5056035;28;20029;-76
2022/04/24 08:08:05;;;;;;;7.90;4.85;;;11.80;99.90;;;;;;5033540;28;20092;-75
2022/04/24 08:10:33;;;;;;;7.22;4.10;;;11.90;99.90;;;;;;5038091;28;20021;-76
2022/04/24 08:12:59;;;;;;;7.22;4.18;;;12.00;99.90;;;;;;5022695;28;20052;-77
2022/04/24 08:15:25;;;;;;;10.48;4.22;;;12.10;99.90;;;;;;5038743;28;20029;-76
2022/04/24 08:17:50;;;;;;;11.73;3.90;;;12.30;99.90;;;;;;5037855;28;20074;-76
2022/04/24 08:20:18;;;;;;;6.43;4.25;;;12.50;99.90;;;;;;5034547;28;20056;-76
2022/04/24 08:22:46;;;;;;;8.27;3.75;;;12.50;99.90;;;;;;5033961;28;20029;-76
2022/04/24 08:25:14;;;;;;;6.38;4.57;;;12.50;99.90;;;;;;5027514;28;20037;-76
2022/04/24 08:27:39;;;;;;;5.13;3.40;;;12.50;99.90;;;;;;5054720;28;20021;-76
2022/04/24 08:30:10;;;;;;;6.22;3.53;;;12.50;99.90;;;;;;5037024;28;20022;-76
2022/04/24 08:32:36;;;;;;;6.90;4.30;;;12.70;99.90;;;;;;5054403;28;20100;-77
2022/04/24 08:35:03;;;;;;;6.07;3.83;;;12.80;99.90;;;;;;5059033;28;20064;-76
2022/04/24 08:37:29;;;;;;;10.60;4.85;;;12.90;99.90;;;;;;5072309;28;20113;-76
2022/04/24 08:39:55;;;;;;;6.70;3.88;;;13.00;99.90;;;;;;5054869;28;20096;-76
2022/04/24 08:42:23;;;;;;;8.77;4.03;;;13.00;99.90;;;;;;5051461;28;20075;-76
2022/04/24 08:44:50;;;;;;;7.70;3.78;;;13.10;99.90;;;;;;5024379;28;20403;-77
2022/04/24 08:47:17;;;;;;;7.78;3.95;;;13.10;99.90;;;;;;5034545;28;20026;-77
2022/04/24 08:49:43;;;;;;;8.32;3.67;;;13.20;99.90;;;;;;5034286;28;20022;-77
2022/04/24 08:52:10;;;;;;;9.57;4.53;;;13.30;99.90;;;;;;5035784;28;20025;-77
2022/04/24 08:54:43;;;;;;;6.75;3.70;;;13.40;99.90;;;;;;5034698;28;20034;-76
2022/04/24 08:57:09;;;;;;;9.88;3.28;;;13.50;99.90;;;;;;5016770;28;20038;-77
2022/04/24 08:59:39;;;;;;;10.55;3.55;;;13.60;99.90;;;;;;5034605;28;20029;-77
2022/04/24 09:02:06;;;;;;;7.05;3.28;;;13.70;99.90;;;;;;5035240;28;20022;-77
2022/04/24 09:04:33;;;;;;;5.28;3.20;;;13.90;99.90;;;;;;5038147;28;20030;-77
2022/04/24 09:07:00;;;;;;;6.03;3.42;;;13.80;99.90;;;;;;5038773;28;20026;-77
2022/04/24 09:09:26;;;;;;;5.20;3.38;;;13.80;99.90;;;;;;5037730;28;20474;-76
2022/04/24 09:12:05;;;;;;;6.00;3.53;;;13.60;99.90;;;;;;5037995;28;20132;-77
2022/04/24 09:14:32;;;;;;;9.25;3.60;;;13.60;99.90;;;;;;5040352;28;20475;-77
2022/04/24 09:17:00;;;;;;;6.75;3.53;;;13.60;99.90;;;;;;5033655;28;20029;-77
2022/04/24 09:19:26;;;;;;;10.38;3.20;;;13.70;99.90;;;;;;5039901;28;20203;-78
2022/04/24 09:22:00;;;;;;;7.68;3.17;;;13.80;99.90;;;;;;5057616;28;20029;-77
2022/04/24 09:24:37;;;;;;;6.57;3.45;;;13.80;99.90;;;;;;5054201;28;20478;-77
2022/04/24 09:27:02;;;;;;;6.38;3.65;;;13.80;99.90;;;;;;5057464;28;20033;-76
2022/04/24 09:29:28;;;;;;;6.15;3.50;;;14.00;99.90;;;;;;5058593;28;20055;-77
2022/04/24 09:31:54;;;;;;;8.20;3.88;;;14.20;99.90;;;;;;5041557;28;20051;-77
2022/04/24 09:34:20;;;;;;;8.35;3.75;;;14.20;99.90;;;;;;5058867;28;20048;-77
2022/04/24 09:36:57;;;;;;;13.93;4.03;;;14.20;99.90;;;;;;5058943;28;20112;-78
2022/04/24 09:39:31;;;;;;;4.68;3.05;;;14.10;99.90;;;;;;5060373;28;20033;-78
2022/04/24 09:42:03;;;;;;;6.68;3.00;;;14.00;99.90;;;;;;5058586;28;20029;-76
2022/04/24 09:44:42;;;;;;;9.63;3.50;;;14.10;99.90;;;;;;5057058;28;20082;-76
2022/04/24 09:47:09;;;;;;;7.47;3.45;;;14.10;99.90;;;;;;5071382;28;20036;-76
2022/04/24 09:49:37;;;;;;;10.60;3.42;;;14.20;99.90;;;;;;5046737;28;20524;-76
2022/04/24 09:52:10;;;;;;;5.93;2.92;;;14.30;99.90;;;;;;5057793;28;20025;-77
2022/04/24 09:54:41;;;;;;;5.07;2.90;;;14.40;99.90;;;;;;5057298;28;20033;-77
2022/04/24 09:57:09;;;;;;;4.18;2.55;;;14.40;99.90;;;;;;5057690;28;20033;-76
2022/04/24 09:59:37;;;;;;;6.20;3.22;;;14.40;99.90;;;;;;5057833;28;20028;-77
2022/04/24 10:02:04;;;;;;;6.78;3.38;;;14.50;99.90;;;;;;5057457;28;20024;-76
2022/04/24 10:04:30;;;;;;;5.07;3.40;;;14.60;99.90;;;;;;5057426;28;20036;-75
2022/04/24 10:06:57;;;;;;;9.50;3.38;;;14.60;99.90;;;;;;5038700;28;20029;-77
2022/04/24 10:09:24;;;;;;;9.05;4.07;;;14.70;99.90;;;;;;5057019;28;20021;-75
2022/04/24 10:11:50;;;;;;;3.58;2.75;;;14.80;99.90;;;;;;5056752;28;20398;-75
2022/04/24 10:14:18;;;;;;;4.90;3.25;;;14.70;99.90;;;;;;5056137;28;20102;-75
2022/04/24 10:17:26;;;;;;;5.75;3.55;;;14.70;99.90;;;;;;5056969;28;20032;-76
2022/04/24 10:20:23;;;;;;;8.60;3.72;;;14.80;99.90;;;;;;5045388;28;20056;-76
2022/04/24 10:22:53;;;;;;;7.30;3.00;;;14.80;99.90;;;;;;5053220;28;20024;-76
2022/04/24 10:25:32;;;;;;;5.38;3.47;;;14.70;99.90;;;;;;5044412;28;20025;-76
2022/04/24 10:28:18;;;;;;;8.35;3.65;;;14.70;99.90;;;;;;5054312;28;20509;-76
2022/04/24 10:31:00;;;;;;;4.25;2.80;;;14.90;99.90;;;;;;5060474;28;20116;-77
2022/04/24 10:33:28;;;;;;;7.50;3.22;;;15.00;99.90;;;;;;5057144;28;20027;-76
2022/04/24 10:35:59;;;;;;;8.38;3.65;;;15.10;99.90;;;;;;5038922;28;20025;-75
2022/04/24 10:38:38;;;;;;;;;;;15.20;99.90;;;;;;5057796;28;20051;-76
2022/04/24 10:41:14;;;;;;;5.25;3.28;;;15.20;99.90;;;;;;5051636;28;20290;-75
2022/04/24 10:43:48;;;;;;;9.45;3.58;;;15.40;99.90;;;;;;5047689;28;20028;-77
2022/04/24 10:46:26;;;;;;;4.03;3.28;;;15.40;99.90;;;;;;5053237;28;20013;-76
2022/04/24 10:48:52;;;;;;;6.97;3.58;;;15.40;99.90;;;;;;5050669;28;20034;-75
2022/04/24 10:51:32;;;;;;;6.03;3.53;;;15.40;99.90;;;;;;5035640;28;20547;-76
2022/04/24 10:54:17;;;;;;;7.07;3.15;;;15.30;99.90;;;;;;5031499;28;20095;-76
2022/04/24 10:56:49;;;;;;;6.20;3.47;;;15.30;99.90;;;;;;5052828;28;20374;-77
2022/04/24 10:59:19;;;;;;;6.50;3.42;;;15.20;99.90;;;;;;5046780;28;20005;-75
2022/04/24 11:01:55;;;;;;;5.73;3.13;;;15.20;99.90;;;;;;5063375;28;20029;-75
2022/04/24 11:04:23;;;;;;;5.28;3.30;;;15.40;99.90;;;;;;5054037;28;20260;-75
2022/04/24 11:06:59;;;;;;;6.93;3.63;;;15.30;99.90;;;;;;5054600;28;20021;-76
2022/04/24 11:09:32;;;;;;;3.65;3.10;;;15.20;99.90;;;;;;5051677;28;20017;-76
2022/04/24 11:12:04;;;;;;;7.82;3.85;;;15.30;99.90;;;;;;5035213;28;20036;-77
2022/04/24 11:14:30;;;;;;;7.43;4.03;;;15.60;99.90;;;;;;5036810;28;20052;-77
2022/04/24 11:17:00;;;;;;;5.07;3.13;;;15.70;99.90;;;;;;5054990;28;20460;-77
2022/04/24 11:19:30;;;;;;;7.23;3.90;;;15.80;99.90;;;;;;5052777;28;20426;-76
2022/04/24 11:22:01;;;;;;;4.38;3.40;;;15.90;99.90;;;;;;5051004;28;20379;-76
2022/04/24 11:24:28;;;;;;;5.80;3.53;;;15.90;99.90;;;;;;5053870;28;20025;-76
2022/04/24 11:26:55;;;;;;;5.43;3.67;;;15.80;99.60;;;;;;5051680;28;20075;-76
2022/04/24 11:29:20;;;;;;;5.88;3.80;;;15.70;99.90;;;;;;5035705;28;20021;-76
2022/04/24 11:31:48;;;;;;;7.72;3.20;;;15.80;99.40;;;;;;5054715;28;20036;-76
2022/04/24 11:34:18;;;;;;;4.65;2.92;;;15.70;99.40;;;;;;5054634;28;20369;-76
2022/04/24 11:36:44;;;;;;;5.70;3.13;;;15.80;98.90;;;;;;5054023;28;20017;-76
2022/04/24 11:39:09;;;;;;;4.97;3.55;;;15.70;98.80;;;;;;5054331;28;20382;-75
2022/04/24 11:41:35;;;;;;;5.07;3.00;;;15.60;99.30;;;;;;5054012;28;20116;-75
2022/04/24 11:50:13;;;;;;;5.88;3.17;;;15.60;99.80;;;;;;5036176;28;20044;-75
2022/04/24 11:52:21;;;;;;;6.82;3.53;;;15.70;98.80;;;;;;5045139;28;20040;-75
2022/04/24 11:54:51;;;;;;;7.40;3.92;;;15.80;99.40;;;;;;5033796;28;20026;-75
2022/04/24 11:57:18;;;;;;;6.35;3.03;;;16.00;98.70;;;;;;5016248;28;20119;-75
2022/04/24 11:59:52;;;;;;;7.18;3.60;;;16.00;98.40;;;;;;5033663;28;20034;-75
2022/04/24 12:02:18;;;;;;;6.55;3.22;;;15.90;98.90;;;;;;5033600;28;20027;-75
2022/04/24 12:04:49;;;;;;;7.97;3.80;;;15.90;99.20;;;;;;5033981;28;20101;-74
2022/04/24 12:07:14;;;;;;;6.10;3.22;;;15.90;99.30;;;;;;5046269;28;20112;-75
2022/04/24 12:09:40;;;;;;;6.82;3.10;;;15.90;99.20;;;;;;5058745;28;20419;-75
2022/04/24 12:12:14;;;;;;;9.55;3.45;;;16.00;99.30;;;;;;5059900;28;20059;-75
2022/04/24 12:14:41;;;;;;;5.40;3.08;;;16.00;98.10;;;;;;5050988;28;20021;-74
2022/04/24 12:17:11;;;;;;;9.65;3.58;;;15.90;98.60;;;;;;5035787;28;20028;-74
2022/04/24 12:19:42;;;;;;;6.95;3.95;;;16.00;96.90;;;;;;5034599;28;20131;-75
2022/04/24 12:22:10;;;;;;;6.00;3.22;;;15.80;96.80;;;;;;5048873;28;20358;-75
2022/04/24 12:24:47;;;;;;;4.03;3.03;;;15.80;97.10;;;;;;5051777;28;20370;-76
2022/04/24 12:27:16;;;;;;;5.53;3.45;;;15.80;97.20;;;;;;5051382;28;20028;-75
2022/04/24 12:29:44;;;;;;;5.15;3.60;;;15.70;96.70;;;;;;5052934;28;20059;-75
2022/04/24 12:32:13;;;;;;;3.83;3.10;;;15.70;97.30;;;;;;5034674;28;20017;-75
2022/04/24 12:34:45;;;;;;;7.22;3.30;;;15.70;97.60;;;;;;5052389;28;20013;-77
2022/04/24 12:37:15;;;;;;;6.45;3.28;;;15.80;97.40;;;;;;5052539;28;20358;-77
2022/04/24 12:39:50;;;;;;;6.47;3.78;;;15.80;97.40;;;;;;5056523;28;20032;-75
2022/04/24 12:42:17;;;;;;;7.22;4.05;;;15.70;97.70;;;;;;5056173;28;20045;-75
2022/04/24 12:44:44;;;;;;;9.65;3.55;;;15.60;97.40;;;;;;5038906;28;20021;-74
2022/04/24 12:47:10;;;;;;;6.72;3.90;;;15.50;97.80;;;;;;5056530;28;20021;-74
2022/04/24 12:49:36;;;;;;;4.70;2.90;;;15.50;98.10;;;;;;5055087;28;20029;-75
2022/04/24 12:52:02;;;;;;;6.07;3.05;;;15.50;97.30;;;;;;5056448;28;20074;-75
2022/04/24 12:54:28;;;;;;;5.75;3.00;;;15.40;97.40;;;;;;5057030;28;20046;-76
2022/04/24 12:56:54;;;;;;;11.40;3.15;;;15.50;96.70;;;;;;5056693;28;20025;-75
2022/04/24 12:59:20;;;;;;;4.20;2.63;;;15.30;96.60;;;;;;5039897;28;20025;-74